createdAt,value
2023-03-11T00:00:24.150Z,994.29
2023-03-11T00:01:24.072Z,994.34
2023-03-11T00:02:24.149Z,994.34
2023-03-11T00:03:24.081Z,994.32
2023-03-11T00:04:24.059Z,994.35
2023-03-11T00:05:24.170Z,994.37
2023-03-11T00:06:24.063Z,994.39
2023-03-11T00:07:24.016Z,994.34
2023-03-11T00:08:24.021Z,994.43
2023-03-11T00:09:23.997Z,994.46
2023-03-11T00:10:24.008Z,994.52
2023-03-11T00:11:23.985Z,994.46
2023-03-11T00:12:24.009Z,994.64
2023-03-11T00:13:23.970Z,994.44
2023-03-11T00:14:23.975Z,994.41
2023-03-11T00:15:23.904Z,994.44
2023-03-11T00:16:24.288Z,994.46
2023-03-11T00:17:23.907Z,994.48
2023-03-11T00:18:23.890Z,994.52
2023-03-11T00:19:23.877Z,994.54
2023-03-11T00:20:23.864Z,994.61
2023-03-11T00:21:23.845Z,994.61
2023-03-11T00:22:23.870Z,994.62
2023-03-11T00:23:23.852Z,994.67
2023-03-11T00:24:23.823Z,994.74
2023-03-11T00:25:23.801Z,994.73
2023-03-11T00:26:23.802Z,994.83
2023-03-11T00:27:23.775Z,994.80
2023-03-11T00:28:23.784Z,994.84
2023-03-11T00:29:23.773Z,994.82
2023-03-11T00:30:23.776Z,994.86
2023-03-11T00:31:23.741Z,994.97
2023-03-11T00:32:23.801Z,994.96
2023-03-11T00:33:23.724Z,994.98
2023-03-11T00:34:23.724Z,995.01
2023-03-11T00:35:23.694Z,995.05
2023-03-11T00:36:23.716Z,995.06
2023-03-11T00:37:23.683Z,995.10
2023-03-11T00:38:23.741Z,995.11
2023-03-11T00:39:23.667Z,995.11
2023-03-11T00:40:23.664Z,995.15
2023-03-11T00:41:23.634Z,995.31
2023-03-11T00:42:23.622Z,995.20
2023-03-11T00:43:23.603Z,995.11
2023-03-11T00:44:23.608Z,995.21
2023-03-11T00:45:23.580Z,995.22
2023-03-11T00:46:23.642Z,995.22
2023-03-11T00:47:23.628Z,995.23
2023-03-11T00:48:23.581Z,995.23
2023-03-11T00:49:23.542Z,995.52
2023-03-11T00:50:24.139Z,995.32
2023-03-11T00:51:23.520Z,995.33
2023-03-11T00:52:23.542Z,995.26
2023-03-11T00:53:23.521Z,995.42
2023-03-11T00:54:23.489Z,995.39
2023-03-11T00:55:23.491Z,995.44
2023-03-11T00:56:23.508Z,995.49
2023-03-11T00:57:23.462Z,995.49
2023-03-11T00:58:23.459Z,995.44
2023-03-11T00:59:23.471Z,995.51
2023-03-11T01:00:23.438Z,995.50
2023-03-11T01:01:23.453Z,995.53
2023-03-11T01:02:23.795Z,995.55
2023-03-11T01:03:23.414Z,995.54
2023-03-11T01:04:23.446Z,995.63
2023-03-11T01:05:23.410Z,995.62
2023-03-11T01:06:24.586Z,995.83
2023-03-11T01:07:23.403Z,995.65
2023-03-11T01:09:23.810Z,995.82
2023-03-11T01:10:23.760Z,995.68
2023-03-11T01:11:24.533Z,995.78
2023-03-11T01:12:23.727Z,995.79
2023-03-11T01:13:23.739Z,995.78
2023-03-11T01:14:23.710Z,995.82
2023-03-11T01:15:23.741Z,995.76
2023-03-11T01:16:23.741Z,995.77
2023-03-11T01:17:23.704Z,995.71
2023-03-11T01:18:23.781Z,995.85
2023-03-11T01:19:23.700Z,995.89
2023-03-11T01:20:23.650Z,995.86
2023-03-11T01:21:23.657Z,995.85
2023-03-11T01:22:23.628Z,995.87
2023-03-11T01:23:23.638Z,995.84
2023-03-11T01:24:23.610Z,995.94
2023-03-11T01:25:23.605Z,995.96
2023-03-11T01:26:23.677Z,995.93
2023-03-11T01:27:23.592Z,995.97
2023-03-11T01:28:23.569Z,996.00
2023-03-11T01:29:23.553Z,995.97
2023-03-11T01:30:23.541Z,995.98
2023-03-11T01:31:23.654Z,996.02
2023-03-11T01:32:23.575Z,996.14
2023-03-11T01:33:23.531Z,996.04
2023-03-11T01:34:23.506Z,996.07
2023-03-11T01:35:23.497Z,996.13
2023-03-11T01:36:23.473Z,996.11
2023-03-11T01:37:23.489Z,996.11
2023-03-11T01:38:23.459Z,996.09
2023-03-11T01:39:23.472Z,996.10
2023-03-11T01:40:23.436Z,996.12
2023-03-11T01:41:23.432Z,996.07
2023-03-11T01:42:23.409Z,996.10
2023-03-11T01:43:23.411Z,996.15
2023-03-11T01:44:23.410Z,996.11
2023-03-11T01:45:23.391Z,996.15
2023-03-11T01:46:23.428Z,996.13
2023-03-11T01:47:23.362Z,996.15
2023-03-11T01:48:23.341Z,996.15
2023-03-11T01:49:23.377Z,996.21
2023-03-11T01:50:23.341Z,996.16
2023-03-11T01:51:23.317Z,996.18
2023-03-11T01:52:23.302Z,996.25
2023-03-11T01:53:23.302Z,996.25
2023-03-11T01:54:23.275Z,996.21
2023-03-11T01:55:23.278Z,996.23
2023-03-11T01:56:23.269Z,996.38
2023-03-11T01:57:23.264Z,996.31
2023-03-11T01:58:23.232Z,996.31
2023-03-11T01:59:23.249Z,996.36
2023-03-11T02:00:23.224Z,996.43
2023-03-11T02:01:23.223Z,996.41
2023-03-11T02:02:23.207Z,996.41
2023-03-11T02:03:23.208Z,996.51
2023-03-11T02:04:23.195Z,996.50
2023-03-11T02:05:23.178Z,996.51
2023-03-11T02:06:23.196Z,996.55
2023-03-11T02:07:23.153Z,996.54
2023-03-11T02:08:23.134Z,996.51
2023-03-11T02:09:23.165Z,996.46
2023-03-11T02:10:23.109Z,996.50
2023-03-11T02:11:23.109Z,996.49
2023-03-11T02:12:23.089Z,996.58
2023-03-11T02:13:23.107Z,996.49
2023-03-11T02:14:23.068Z,996.54
2023-03-11T02:15:23.107Z,996.50
2023-03-11T02:16:23.148Z,996.54
2023-03-11T02:17:23.052Z,996.56
2023-03-11T02:18:23.030Z,996.56
2023-03-11T02:19:23.040Z,996.58
2023-03-11T02:20:23.059Z,996.57
2023-03-11T02:21:23.007Z,996.61
2023-03-11T02:22:23.003Z,996.58
2023-03-11T02:23:22.991Z,996.56
2023-03-11T02:24:22.991Z,996.48
2023-03-11T02:25:22.970Z,996.54
2023-03-11T02:26:23.068Z,996.54
2023-03-11T02:27:22.966Z,996.58
2023-03-11T02:28:22.948Z,996.62
2023-03-11T02:29:22.928Z,996.56
2023-03-11T02:30:22.927Z,996.58
2023-03-11T02:31:22.940Z,996.53
2023-03-11T02:32:22.988Z,996.53
2023-03-11T02:33:22.886Z,996.55
2023-03-11T02:34:22.862Z,996.60
2023-03-11T02:35:22.873Z,996.51
2023-03-11T02:36:22.926Z,996.59
2023-03-11T02:37:22.856Z,996.54
2023-03-11T02:38:22.855Z,996.54
2023-03-11T02:39:22.829Z,996.51
2023-03-11T02:40:22.804Z,996.63
2023-03-11T02:41:22.822Z,996.56
2023-03-11T02:42:22.778Z,996.62
2023-03-11T02:43:22.796Z,996.58
2023-03-11T02:44:22.778Z,996.60
2023-03-11T02:45:22.796Z,996.60
2023-03-11T02:46:22.815Z,996.60
2023-03-11T02:47:22.750Z,996.58
2023-03-11T02:48:22.718Z,996.62
2023-03-11T02:49:22.726Z,996.61
2023-03-11T02:50:22.709Z,996.68
2023-03-11T02:51:22.756Z,996.67
2023-03-11T02:52:22.674Z,996.67
2023-03-11T02:53:22.678Z,996.71
2023-03-11T02:54:22.644Z,996.68
2023-03-11T02:55:22.680Z,996.74
2023-03-11T02:56:22.627Z,996.74
2023-03-11T02:57:22.634Z,996.67
2023-03-11T02:58:22.602Z,996.70
2023-03-11T02:59:22.594Z,996.73
2023-03-11T03:00:22.600Z,996.70
2023-03-11T03:01:22.585Z,996.72
2023-03-11T03:02:22.573Z,996.74
2023-03-11T03:03:22.552Z,996.77
2023-03-11T03:04:22.558Z,996.82
2023-03-11T03:05:22.548Z,996.82
2023-03-11T03:06:22.521Z,996.83
2023-03-11T03:07:22.538Z,996.92
2023-03-11T03:08:22.513Z,996.88
2023-03-11T03:09:22.498Z,996.97
2023-03-11T03:10:22.467Z,996.88
2023-03-11T03:11:22.480Z,996.96
2023-03-11T03:12:22.464Z,997.07
2023-03-11T03:13:22.457Z,997.09
2023-03-11T03:14:22.447Z,997.01
2023-03-11T03:15:22.431Z,997.02
2023-03-11T03:16:22.630Z,997.10
2023-03-11T03:17:23.343Z,997.10
2023-03-11T03:18:22.392Z,997.16
2023-03-11T03:19:22.386Z,997.21
2023-03-11T03:20:22.373Z,997.18
2023-03-11T03:21:22.379Z,997.20
2023-03-11T03:22:22.429Z,997.19
2023-03-11T03:23:23.198Z,997.16
2023-03-11T03:24:22.335Z,997.28
2023-03-11T03:25:22.371Z,997.25
2023-03-11T03:26:22.310Z,997.30
2023-03-11T03:27:22.327Z,997.28
2023-03-11T03:28:22.282Z,997.19
2023-03-11T03:29:22.287Z,997.30
2023-03-11T03:30:22.274Z,997.37
2023-03-11T03:31:22.335Z,997.35
2023-03-11T03:32:22.308Z,997.32
2023-03-11T03:33:22.264Z,997.37
2023-03-11T03:34:22.256Z,997.37
2023-03-11T03:35:22.251Z,997.41
2023-03-11T03:36:22.207Z,997.37
2023-03-11T03:37:22.208Z,997.41
2023-03-11T03:38:22.197Z,997.46
2023-03-11T03:39:22.202Z,997.39
2023-03-11T03:40:22.175Z,997.47
2023-03-11T03:41:22.161Z,997.51
2023-03-11T03:42:22.133Z,997.56
2023-03-11T03:43:22.146Z,997.52
2023-03-11T03:44:22.131Z,997.58
2023-03-11T03:45:22.116Z,997.57
2023-03-11T03:46:22.231Z,997.61
2023-03-11T03:47:22.122Z,997.64
2023-03-11T03:48:22.080Z,997.63
2023-03-11T03:49:22.093Z,997.68
2023-03-11T03:50:22.059Z,997.69
2023-03-11T03:51:22.077Z,997.72
2023-03-11T03:52:22.039Z,997.71
2023-03-11T03:53:22.113Z,997.75
2023-03-11T03:54:22.021Z,997.73
2023-03-11T03:55:22.046Z,997.79
2023-03-11T03:56:22.017Z,997.79
2023-03-11T03:57:21.995Z,997.76
2023-03-11T03:58:21.991Z,997.82
2023-03-11T03:59:21.984Z,997.80
2023-03-11T04:00:21.987Z,997.78
2023-03-11T04:01:21.974Z,997.81
2023-03-11T04:02:21.961Z,997.84
2023-03-11T04:03:21.965Z,997.85
2023-03-11T04:04:21.925Z,997.83
2023-03-11T04:05:21.911Z,997.83
2023-03-11T04:06:21.960Z,997.91
2023-03-11T04:07:21.899Z,997.90
2023-03-11T04:08:21.889Z,997.86
2023-03-11T04:09:21.871Z,997.90
2023-03-11T04:10:21.880Z,997.89
2023-03-11T04:11:21.841Z,997.91
2023-03-11T04:12:21.883Z,997.91
2023-03-11T04:13:21.821Z,997.93
2023-03-11T04:14:21.824Z,997.87
2023-03-11T04:15:21.809Z,997.91
2023-03-11T04:16:21.848Z,997.89
2023-03-11T04:17:21.780Z,997.96
2023-03-11T04:18:21.794Z,997.93
2023-03-11T04:19:21.783Z,997.96
2023-03-11T04:20:21.766Z,997.95
2023-03-11T04:21:21.745Z,997.97
2023-03-11T04:22:21.743Z,997.95
2023-03-11T04:23:21.727Z,997.93
2023-03-11T04:24:21.830Z,997.96
2023-03-11T04:25:21.694Z,997.98
2023-03-11T04:26:21.718Z,997.94
2023-03-11T04:27:21.684Z,997.96
2023-03-11T04:28:21.687Z,998.05
2023-03-11T04:29:21.674Z,998.03
2023-03-11T04:30:21.662Z,998.01
2023-03-11T04:31:21.702Z,998.07
2023-03-11T04:32:21.671Z,998.04
2023-03-11T04:33:21.629Z,998.10
2023-03-11T04:34:21.603Z,998.11
2023-03-11T04:35:21.611Z,998.07
2023-03-11T04:36:21.594Z,998.12
2023-03-11T04:37:21.592Z,998.10
2023-03-11T04:38:21.585Z,998.09
2023-03-11T04:39:21.536Z,998.17
2023-03-11T04:40:21.553Z,998.18
2023-03-11T04:41:21.556Z,998.20
2023-03-11T04:42:21.542Z,998.21
2023-03-11T04:43:21.504Z,998.19
2023-03-11T04:44:21.523Z,998.22
2023-03-11T04:45:21.484Z,998.23
2023-03-11T04:46:21.532Z,998.19
2023-03-11T04:47:21.457Z,998.30
2023-03-11T04:48:21.460Z,998.24
2023-03-11T04:49:22.293Z,998.29
2023-03-11T04:50:21.460Z,998.27
2023-03-11T04:51:21.449Z,998.29
2023-03-11T04:52:21.431Z,998.36
2023-03-11T04:53:21.403Z,998.33
2023-03-11T04:54:21.436Z,998.33
2023-03-11T04:55:21.432Z,998.37
2023-03-11T04:56:21.404Z,998.43
2023-03-11T04:57:21.342Z,998.45
2023-03-11T04:58:21.383Z,998.44
2023-03-11T04:59:21.328Z,998.49
2023-03-11T05:00:21.330Z,998.50
2023-03-11T05:01:21.349Z,998.49
2023-03-11T05:02:21.320Z,998.50
2023-03-11T05:03:21.398Z,998.51
2023-03-11T05:04:21.346Z,998.56
2023-03-11T05:05:21.283Z,998.55
2023-03-11T05:06:21.275Z,998.56
2023-03-11T05:07:21.248Z,998.56
2023-03-11T05:08:21.269Z,998.61
2023-03-11T05:09:21.237Z,998.55
2023-03-11T05:10:21.258Z,998.54
2023-03-11T05:11:21.198Z,998.59
2023-03-11T05:12:21.233Z,998.53
2023-03-11T05:13:21.190Z,998.56
2023-03-11T05:14:21.205Z,998.62
2023-03-11T05:15:21.162Z,998.60
2023-03-11T05:16:21.238Z,998.61
2023-03-11T05:17:21.143Z,998.61
2023-03-11T05:18:21.146Z,998.65
2023-03-11T05:19:21.116Z,998.64
2023-03-11T05:20:21.119Z,998.61
2023-03-11T05:21:21.093Z,998.62
2023-03-11T05:22:21.145Z,998.65
2023-03-11T05:23:21.067Z,998.66
2023-03-11T05:24:21.091Z,998.67
2023-03-11T05:25:21.090Z,998.62
2023-03-11T05:26:21.154Z,998.66
2023-03-11T05:27:21.063Z,998.66
2023-03-11T05:28:21.081Z,998.64
2023-03-11T05:29:21.017Z,998.67
2023-03-11T05:30:21.023Z,998.69
2023-03-11T05:31:21.102Z,998.67
2023-03-11T05:32:21.083Z,998.77
2023-03-11T05:33:21.030Z,998.67
2023-03-11T05:34:21.008Z,998.70
2023-03-11T05:35:21.058Z,998.70
2023-03-11T05:36:20.956Z,998.78
2023-03-11T05:37:20.949Z,998.78
2023-03-11T05:38:20.933Z,998.78
2023-03-11T05:39:20.905Z,998.83
2023-03-11T05:40:20.912Z,998.83
2023-03-11T05:41:20.889Z,998.88
2023-03-11T05:42:21.570Z,998.92
2023-03-11T05:43:20.869Z,998.83
2023-03-11T05:44:20.894Z,998.88
2023-03-11T05:45:20.858Z,998.88
2023-03-11T05:46:20.887Z,998.95
2023-03-11T05:47:20.833Z,998.88
2023-03-11T05:48:20.819Z,998.98
2023-03-11T05:49:20.893Z,998.93
2023-03-11T05:50:20.845Z,999.03
2023-03-11T05:51:20.808Z,999.11
2023-03-11T05:52:20.789Z,999.06
2023-03-11T05:53:20.760Z,999.07
2023-03-11T05:54:20.779Z,999.09
2023-03-11T05:55:20.751Z,999.17
2023-03-11T05:56:20.732Z,999.14
2023-03-11T05:57:20.992Z,999.17
2023-03-11T05:58:20.852Z,999.21
2023-03-11T05:59:20.715Z,999.22
2023-03-11T06:00:20.714Z,999.20
2023-03-11T06:01:20.733Z,999.21
2023-03-11T06:02:20.823Z,999.18
2023-03-11T06:03:20.746Z,999.17
2023-03-11T06:04:20.809Z,999.22
2023-03-11T06:05:20.650Z,999.26
2023-03-11T06:06:20.682Z,999.24
2023-03-11T06:07:20.623Z,999.32
2023-03-11T06:08:20.609Z,999.29
2023-03-11T06:09:20.617Z,999.37
2023-03-11T06:10:20.589Z,999.35
2023-03-11T06:11:20.590Z,999.37
2023-03-11T06:12:20.577Z,999.38
2023-03-11T06:13:20.566Z,999.33
2023-03-11T06:14:20.565Z,999.38
2023-03-11T06:15:20.543Z,999.37
2023-03-11T06:16:20.607Z,999.43
2023-03-11T06:17:20.517Z,999.41
2023-03-11T06:18:20.517Z,999.39
2023-03-11T06:19:20.501Z,999.43
2023-03-11T06:20:20.490Z,999.40
2023-03-11T06:21:20.476Z,999.48
2023-03-11T06:22:20.507Z,999.48
2023-03-11T06:23:20.447Z,999.47
2023-03-11T06:24:20.444Z,999.49
2023-03-11T06:25:20.462Z,999.55
2023-03-11T06:26:20.411Z,999.49
2023-03-11T06:27:20.394Z,999.55
2023-03-11T06:28:20.629Z,999.55
2023-03-11T06:29:20.399Z,999.46
2023-03-11T06:30:20.419Z,999.54
2023-03-11T06:31:20.398Z,999.51
2023-03-11T06:32:20.427Z,999.54
2023-03-11T06:33:20.345Z,999.58
2023-03-11T06:34:20.379Z,999.57
2023-03-11T06:35:20.345Z,999.66
2023-03-11T06:36:20.343Z,999.59
2023-03-11T06:37:20.313Z,999.67
2023-03-11T06:38:20.300Z,999.67
2023-03-11T06:39:20.280Z,999.73
2023-03-11T06:40:20.294Z,999.71
2023-03-11T06:41:20.292Z,999.83
2023-03-11T06:42:20.258Z,999.76
2023-03-11T06:43:20.240Z,999.76
2023-03-11T06:44:20.278Z,999.76
2023-03-11T06:45:20.821Z,999.77
2023-03-11T06:46:20.333Z,999.83
2023-03-11T06:47:20.248Z,999.85
2023-03-11T06:48:20.210Z,999.86
2023-03-11T06:49:20.302Z,999.83
2023-03-11T06:50:27.190Z,999.85
2023-03-11T06:51:21.956Z,999.91
2023-03-11T06:52:20.157Z,999.83
2023-03-11T06:53:20.126Z,999.89
2023-03-11T06:54:20.122Z,999.93
2023-03-11T06:55:20.143Z,999.94
2023-03-11T06:56:20.121Z,999.98
2023-03-11T06:57:20.090Z,999.96
2023-03-11T06:58:20.086Z,1000.01
2023-03-11T06:59:20.153Z,999.97
2023-03-11T07:00:20.067Z,1000.00
2023-03-11T07:01:20.088Z,1000.01
2023-03-11T07:02:20.051Z,999.97
2023-03-11T07:03:20.041Z,1000.03
2023-03-11T07:04:20.069Z,999.94
2023-03-11T07:05:20.016Z,1000.02
2023-03-11T07:06:19.995Z,1000.00
2023-03-11T07:07:20.017Z,1000.09
2023-03-11T07:08:20.022Z,1000.11
2023-03-11T07:09:19.960Z,1000.04
2023-03-11T07:10:20.282Z,1000.08
2023-03-11T07:11:20.239Z,1000.15
2023-03-11T07:12:20.479Z,1000.14
2023-03-11T07:13:19.918Z,1000.11
2023-03-11T07:14:20.499Z,1000.21
2023-03-11T07:15:20.246Z,1000.20
2023-03-11T07:16:19.944Z,1000.27
2023-03-11T07:17:20.012Z,1000.30
2023-03-11T07:18:19.883Z,1000.35
2023-03-11T07:19:20.466Z,1000.31
2023-03-11T07:20:20.237Z,1000.35
2023-03-11T07:21:20.010Z,1000.35
2023-03-11T07:22:20.062Z,1000.35
2023-03-11T07:23:20.277Z,1000.41
2023-03-11T07:24:19.862Z,1000.37
2023-03-11T07:25:19.799Z,1000.41
2023-03-11T07:26:20.179Z,1000.51
2023-03-11T07:27:19.851Z,1000.45
2023-03-11T07:28:20.171Z,1000.43
2023-03-11T07:29:19.896Z,1000.43
2023-03-11T07:30:20.236Z,1000.48
2023-03-11T07:31:19.957Z,1000.48
2023-03-11T07:32:19.769Z,1000.44
2023-03-11T07:33:19.776Z,1000.47
2023-03-11T07:34:19.706Z,1000.44
2023-03-11T07:35:19.700Z,1000.44
2023-03-11T07:36:20.020Z,1000.50
2023-03-11T07:37:19.904Z,1000.51
2023-03-11T07:38:19.821Z,1000.58
2023-03-11T07:39:20.200Z,1000.51
2023-03-11T07:40:19.975Z,1000.57
2023-03-11T07:41:19.619Z,1000.53
2023-03-11T07:42:19.625Z,1000.65
2023-03-11T07:43:19.761Z,1000.58
2023-03-11T07:44:19.610Z,1000.66
2023-03-11T07:45:20.146Z,1000.66
2023-03-11T07:46:19.918Z,1000.63
2023-03-11T07:47:19.739Z,1000.69
2023-03-11T07:48:19.715Z,1000.69
2023-03-11T07:49:20.028Z,1000.67
2023-03-11T07:50:19.530Z,1000.68
2023-03-11T07:51:19.555Z,1000.71
2023-03-11T07:52:19.528Z,1000.71
2023-03-11T07:53:19.492Z,1000.74
2023-03-11T07:54:19.534Z,1000.80
2023-03-11T07:55:19.489Z,1000.78
2023-03-11T07:56:19.474Z,1000.82
2023-03-11T07:57:19.472Z,1000.87
2023-03-11T07:58:19.516Z,1000.85
2023-03-11T07:59:19.450Z,1000.84
2023-03-11T08:00:19.429Z,1000.90
2023-03-11T08:01:19.470Z,1000.94
2023-03-11T08:02:19.494Z,1000.88
2023-03-11T08:03:19.413Z,1000.92
2023-03-11T08:04:19.398Z,1001.00
2023-03-11T08:05:19.383Z,1001.00
2023-03-11T08:06:19.374Z,1000.99
2023-03-11T08:07:19.373Z,1001.00
2023-03-11T08:08:19.355Z,1001.04
2023-03-11T08:09:19.337Z,1001.00
2023-03-11T08:10:19.364Z,1001.06
2023-03-11T08:11:19.326Z,1001.05
2023-03-11T08:12:19.298Z,1001.05
2023-03-11T08:13:19.295Z,1000.96
2023-03-11T08:14:19.294Z,1001.04
2023-03-11T08:15:19.279Z,1001.03
2023-03-11T08:16:19.296Z,1001.03
2023-03-11T08:17:19.255Z,1001.13
2023-03-11T08:18:19.236Z,1001.11
2023-03-11T08:19:19.553Z,1001.10
2023-03-11T08:20:19.248Z,1001.17
2023-03-11T08:21:19.213Z,1001.14
2023-03-11T08:22:19.189Z,1001.17
2023-03-11T08:23:19.195Z,1001.15
2023-03-11T08:24:19.183Z,1001.20
2023-03-11T08:25:19.168Z,1001.21
2023-03-11T08:26:19.139Z,1001.21
2023-03-11T08:27:19.161Z,1001.26
2023-03-11T08:28:19.106Z,1001.19
2023-03-11T08:29:19.142Z,1001.18
2023-03-11T08:30:19.098Z,1001.22
2023-03-11T08:31:19.282Z,1001.17
2023-03-11T08:32:19.319Z,1001.20
2023-03-11T08:33:19.078Z,1001.29
2023-03-11T08:34:19.052Z,1001.24
2023-03-11T08:35:19.076Z,1001.21
2023-03-11T08:36:19.028Z,1001.24
2023-03-11T08:37:19.783Z,1001.28
2023-03-11T08:38:19.013Z,1001.27
2023-03-11T08:39:19.041Z,1001.27
2023-03-11T08:40:19.021Z,1001.26
2023-03-11T08:41:18.998Z,1001.29
2023-03-11T08:42:18.977Z,1001.22
2023-03-11T08:43:18.964Z,1001.21
2023-03-11T08:44:18.951Z,1001.26
2023-03-11T08:45:18.944Z,1001.26
2023-03-11T08:46:18.946Z,1001.31
2023-03-11T08:47:18.922Z,1001.36
2023-03-11T08:48:18.923Z,1001.43
2023-03-11T08:49:18.920Z,1001.35
2023-03-11T08:50:18.874Z,1001.35
2023-03-11T08:51:18.876Z,1001.44
2023-03-11T08:52:18.858Z,1001.42
2023-03-11T08:53:18.886Z,1001.48
2023-03-11T08:54:18.837Z,1001.50
2023-03-11T08:55:19.147Z,1001.42
2023-03-11T08:56:18.846Z,1001.46
2023-03-11T08:57:18.817Z,1001.48
2023-03-11T08:58:18.806Z,1001.45
2023-03-11T08:59:18.794Z,1001.46
2023-03-11T09:00:18.799Z,1001.47
2023-03-11T09:01:18.772Z,1001.46
2023-03-11T09:02:18.789Z,1001.51
2023-03-11T09:03:18.895Z,1001.45
2023-03-11T09:04:18.734Z,1001.53
2023-03-11T09:05:18.740Z,1001.52
2023-03-11T09:06:18.711Z,1001.54
2023-03-11T09:07:18.708Z,1001.53
2023-03-11T09:08:18.713Z,1001.59
2023-03-11T09:09:18.712Z,1001.62
2023-03-11T09:10:18.675Z,1001.63
2023-03-11T09:11:18.656Z,1001.60
2023-03-11T09:12:18.653Z,1001.62
2023-03-11T09:13:18.664Z,1001.63
2023-03-11T09:14:18.640Z,1001.65
2023-03-11T09:15:18.633Z,1001.67
2023-03-11T09:16:18.676Z,1001.68
2023-03-11T09:17:18.610Z,1001.67
2023-03-11T09:18:19.533Z,1001.68
2023-03-11T09:19:18.582Z,1001.71
2023-03-11T09:20:18.596Z,1001.74
2023-03-11T09:21:18.588Z,1001.72
2023-03-11T09:22:18.547Z,1001.81
2023-03-11T09:23:18.572Z,1001.71
2023-03-11T09:24:18.542Z,1001.81
2023-03-11T09:25:18.547Z,1001.75
2023-03-11T09:26:18.512Z,1001.77
2023-03-11T09:27:18.493Z,1001.75
2023-03-11T09:28:18.480Z,1001.81
2023-03-11T09:29:18.478Z,1001.81
2023-03-11T09:30:18.459Z,1001.79
2023-03-11T09:31:18.482Z,1001.83
2023-03-11T09:32:18.481Z,1001.88
2023-03-11T09:33:18.445Z,1001.75
2023-03-11T09:34:18.607Z,1001.80
2023-03-11T09:35:18.425Z,1001.77
2023-03-11T09:36:18.420Z,1001.83
2023-03-11T09:37:18.389Z,1001.73
2023-03-11T09:38:18.368Z,1001.77
2023-03-11T09:39:18.412Z,1001.87
2023-03-11T09:40:18.352Z,1001.86
2023-03-11T09:41:18.353Z,1001.77
2023-03-11T09:42:18.312Z,1001.82
2023-03-11T09:43:18.321Z,1001.81
2023-03-11T09:44:18.344Z,1001.80
2023-03-11T09:45:18.313Z,1001.82
2023-03-11T09:46:18.309Z,1001.78
2023-03-11T09:47:18.284Z,1001.78
2023-03-11T09:48:18.296Z,1001.77
2023-03-11T09:49:18.287Z,1001.80
2023-03-11T09:50:18.247Z,1001.75
2023-03-11T09:51:18.237Z,1001.79
2023-03-11T09:52:18.219Z,1001.78
2023-03-11T09:53:18.239Z,1001.75
2023-03-11T09:54:18.216Z,1001.74
2023-03-11T09:55:18.193Z,1001.71
2023-03-11T09:56:18.190Z,1001.75
2023-03-11T09:57:18.170Z,1001.78
2023-03-11T09:58:18.180Z,1001.75
2023-03-11T09:59:18.148Z,1001.74
2023-03-11T10:00:18.118Z,1001.79
2023-03-11T10:01:18.104Z,1001.82
2023-03-11T10:02:18.175Z,1001.74
2023-03-11T10:03:18.171Z,1001.75
2023-03-11T10:04:18.092Z,1001.74
2023-03-11T10:05:18.233Z,1001.82
2023-03-11T10:06:18.079Z,1001.75
2023-03-11T10:07:18.069Z,1001.71
2023-03-11T10:08:18.046Z,1001.73
2023-03-11T10:09:18.031Z,1001.77
2023-03-11T10:10:18.019Z,1001.74
2023-03-11T10:11:18.024Z,1001.79
2023-03-11T10:12:18.014Z,1001.86
2023-03-11T10:13:18.046Z,1001.84
2023-03-11T10:14:17.985Z,1001.86
2023-03-11T10:15:17.971Z,1001.85
2023-03-11T10:16:18.000Z,1001.87
2023-03-11T10:17:17.961Z,1001.91
2023-03-11T10:18:18.895Z,1001.87
2023-03-11T10:19:17.927Z,1001.92
2023-03-11T10:20:17.929Z,1001.91
2023-03-11T10:21:17.908Z,1001.86
2023-03-11T10:22:18.840Z,1001.96
2023-03-11T10:23:17.886Z,1001.99
2023-03-11T10:24:17.868Z,1001.92
2023-03-11T10:25:17.885Z,1001.97
2023-03-11T10:26:17.851Z,1001.91
2023-03-11T10:27:17.846Z,1001.96
2023-03-11T10:28:17.817Z,1001.94
2023-03-11T10:29:17.831Z,1001.90
2023-03-11T10:30:17.816Z,1001.96
2023-03-11T10:31:17.859Z,1001.92
2023-03-11T10:32:17.821Z,1001.96
2023-03-11T10:33:17.788Z,1002.00
2023-03-11T10:34:17.765Z,1001.98
2023-03-11T10:35:17.770Z,1001.94
2023-03-11T10:36:17.923Z,1001.95
2023-03-11T10:37:17.758Z,1001.95
2023-03-11T10:38:17.711Z,1002.00
2023-03-11T10:39:17.735Z,1002.05
2023-03-11T10:40:17.701Z,1001.99
2023-03-11T10:41:17.693Z,1001.94
2023-03-11T10:42:17.695Z,1002.00
2023-03-11T10:43:17.693Z,1002.01
2023-03-11T10:44:17.649Z,1002.10
2023-03-11T10:45:17.652Z,1002.04
2023-03-11T10:46:17.706Z,1001.99
2023-03-11T10:47:17.627Z,1001.99
2023-03-11T10:48:17.617Z,1002.07
2023-03-11T10:49:17.602Z,1002.02
2023-03-11T10:50:17.596Z,1002.03
2023-03-11T10:51:17.608Z,1002.11
2023-03-11T10:52:17.564Z,1002.06
2023-03-11T10:53:17.574Z,1002.03
2023-03-11T10:54:17.548Z,1002.00
2023-03-11T10:55:17.549Z,1002.08
2023-03-11T10:56:17.520Z,1002.05
2023-03-11T10:57:17.518Z,1002.03
2023-03-11T10:58:17.499Z,1002.04
2023-03-11T10:59:17.504Z,1002.04
2023-03-11T11:00:17.571Z,1002.00
2023-03-11T11:01:17.513Z,1002.01
2023-03-11T11:02:17.459Z,1002.01
2023-03-11T11:03:17.455Z,1002.02
2023-03-11T11:04:17.470Z,1002.07
2023-03-11T11:05:17.452Z,1002.05
2023-03-11T11:06:17.418Z,1001.96
2023-03-11T11:07:17.506Z,1002.02
2023-03-11T11:08:18.351Z,1001.98
2023-03-11T11:09:17.407Z,1001.97
2023-03-11T11:10:17.384Z,1002.02
2023-03-11T11:11:17.370Z,1002.00
2023-03-11T11:12:17.369Z,1001.97
2023-03-11T11:13:17.331Z,1001.96
2023-03-11T11:14:17.312Z,1001.98
2023-03-11T11:15:17.338Z,1001.91
2023-03-11T11:16:17.314Z,1001.98
2023-03-11T11:17:17.309Z,1001.99
2023-03-11T11:18:18.256Z,1001.94
2023-03-11T11:19:17.308Z,1002.02
2023-03-11T11:20:17.283Z,1001.94
2023-03-11T11:21:17.268Z,1001.94
2023-03-11T11:22:17.246Z,1001.94
2023-03-11T11:23:17.241Z,1001.92
2023-03-11T11:24:17.228Z,1001.95
2023-03-11T11:25:17.290Z,1001.95
2023-03-11T11:26:17.199Z,1001.94
2023-03-11T11:27:17.214Z,1001.95
2023-03-11T11:28:17.176Z,1001.86
2023-03-11T11:29:17.385Z,1001.87
2023-03-11T11:30:17.158Z,1001.90
2023-03-11T11:31:17.195Z,1001.82
2023-03-11T11:32:17.205Z,1001.86
2023-03-11T11:33:17.203Z,1001.86
2023-03-11T11:34:17.094Z,1001.81
2023-03-11T11:35:17.184Z,1001.82
2023-03-11T11:36:17.088Z,1001.80
2023-03-11T11:37:17.088Z,1001.81
2023-03-11T11:38:17.274Z,1001.81
2023-03-11T11:39:17.062Z,1001.76
2023-03-11T11:40:17.057Z,1001.78
2023-03-11T11:41:17.047Z,1001.78
2023-03-11T11:42:17.027Z,1001.82
2023-03-11T11:43:17.023Z,1001.83
2023-03-11T11:44:16.998Z,1001.84
2023-03-11T11:45:17.015Z,1001.79
2023-03-11T11:46:17.033Z,1001.76
2023-03-11T11:47:16.969Z,1001.75
2023-03-11T11:48:16.979Z,1001.74
2023-03-11T11:49:16.981Z,1001.73
2023-03-11T11:50:16.961Z,1001.73
2023-03-11T11:51:16.968Z,1001.64
2023-03-11T11:52:16.922Z,1001.66
2023-03-11T11:53:16.933Z,1001.63
2023-03-11T11:54:16.878Z,1001.60
2023-03-11T11:55:16.929Z,1001.61
2023-03-11T11:56:16.859Z,1001.53
2023-03-11T11:57:16.866Z,1001.48
2023-03-11T11:58:16.859Z,1001.56
2023-03-11T11:59:16.844Z,1001.59
2023-03-11T12:00:16.828Z,1001.51
2023-03-11T12:01:16.813Z,1001.61
2023-03-11T12:02:16.811Z,1001.52
2023-03-11T12:03:16.839Z,1001.58
2023-03-11T12:04:16.762Z,1001.55
2023-03-11T12:05:16.799Z,1001.54
2023-03-11T12:06:16.752Z,1001.55
2023-03-11T12:07:16.738Z,1001.55
2023-03-11T12:08:16.761Z,1001.55
2023-03-11T12:09:16.940Z,1001.53
2023-03-11T12:10:23.753Z,1001.49
2023-03-11T12:11:17.757Z,1001.60
2023-03-11T12:12:16.705Z,1001.59
2023-03-11T12:13:16.682Z,1001.63
2023-03-11T12:14:16.669Z,1001.60
2023-03-11T12:15:16.677Z,1001.43
2023-03-11T12:16:16.699Z,1001.49
2023-03-11T12:17:16.641Z,1001.53
2023-03-11T12:18:16.636Z,1001.45
2023-03-11T12:19:16.633Z,1001.52